Time;durP1;ratioP1;P1;durP2;ratioP2;P2;SDS_P1;SDS_P2;PMS_P1;PMS_P2;Temp;Humidity;BMP_temperature;BMP_pressure;BME280_temperature;BME280_humidity;BME280_pressure;Samples;Min_cycle;Max_cycle;Signal;HPM_P1;HPM_P2
2021/10/18 00:00:57;;;;;;;;;;;;;;;;;;2090621;28;1967;-89
2021/10/18 00:01:59;;;;;;;;;;;;;;;;;;2083007;28;1216;-88
2021/10/18 00:03:00;;;;;;;;;;;;;;;;;;2066782;28;2054;-88
2021/10/18 00:04:03;;;;;;;;;;;;;;;;;;2066841;28;1306;-90
2021/10/18 00:05:05;;;;;;;;;;;;;;;;;;2074173;28;1248;-89
2021/10/18 00:06:07;;;;;;;;;;;;;;;;;;2077083;28;1898;-89
2021/10/18 00:07:08;;;;;;;;;;;;;;;;;;2066743;28;2027;-89
2021/10/18 00:08:11;;;;;;;;;;;;;;;;;;2066789;28;1252;-89
2021/10/18 00:09:12;;;;;;;;;;;;;;;;;;2074702;28;1227;-89
2021/10/18 00:10:14;;;;;;;;;;;;;;;;;;2074837;28;1346;-88
2021/10/18 00:11:15;;;;;;;;;;;;;;;;;;2075100;28;1862;-88
2021/10/18 00:12:17;;;;;;;;;;;;;;;;;;2083170;28;1899;-88
2021/10/18 00:13:17;;;;;;;;;;;;;;;;;;2082734;28;1228;-87
2021/10/18 00:14:19;;;;;;;;;;;;;;;;;;2082338;28;1299;-87
2021/10/18 00:15:20;;;;;;;;;;;;;;;;;;2083036;28;1314;-87
2021/10/18 00:16:28;;;;;;;;;;;;;;;;;;2075153;28;1899;-89
2021/10/18 00:17:29;;;;;;;;;;;;;;;;;;2076411;28;2081;-87
2021/10/18 00:18:31;;;;;;;;;;;;;;;;;;2082882;28;1322;-89
2021/10/18 00:19:32;;;;;;;;;;;;;;;;;;2082593;28;1350;-88
2021/10/18 00:20:34;;;;;;;;;;;;;;;;;;2075818;28;1918;-88
2021/10/18 00:21:35;;;;;;;;;;;;;;;;;;2074628;28;1427;-87
2021/10/18 00:22:37;;;;;;;;;;;;;;;;;;2067368;28;2026;-87
2021/10/18 00:23:42;;;;;;;;;;;;;;;;;;2075092;28;1462;-87
2021/10/18 00:24:43;;;;;;;;;;;;;;;;;;2074724;28;1366;-87
2021/10/18 00:25:45;;;;;;;;;;;;;;;;;;2069314;28;1960;-87
2021/10/18 00:26:46;;;;;;;;;;;;;;;;;;2074706;28;888;-87
2021/10/18 00:27:48;;;;;;;;;;;;;;;;;;2080327;28;2105;-87
2021/10/18 00:28:48;;;;;;;;;;;;;;;;;;2074582;28;1235;-87
2021/10/18 00:29:50;;;;;;;;;;;;;;;;;;2082792;28;1308;-87
2021/10/18 00:30:51;;;;;;;;;;;;;;;;;;2082308;28;1890;-87
2021/10/18 00:31:53;;;;;;;;;;;;;;;;;;2082743;28;1355;-87
2021/10/18 00:32:53;;;;;;;;;;;;;;;;;;2082522;28;2015;-87
2021/10/18 00:33:55;;;;;;;;;;;;;;;;;;2082392;28;1313;-87
2021/10/18 00:34:56;;;;;;;;;;;;;;;;;;2082114;28;1372;-87
2021/10/18 00:35:58;;;;;;;;;;;;;;;;;;2081994;28;2016;-87
2021/10/18 00:36:59;;;;;;;;;;;;;;;;;;2082706;28;1308;-88
2021/10/18 00:38:01;;;;;;;;;;;;;;;;;;2067167;28;2028;-87
2021/10/18 00:39:03;;;;;;;;;;;;;;;;;;2066572;28;1418;-87
2021/10/18 00:40:06;;;;;;;;;;;;;;;;;;2074768;28;1287;-87
2021/10/18 00:41:07;;;;;;;;;;;;;;;;;;2082785;28;1975;-87
2021/10/18 00:42:09;;;;;;;;;;;;;;;;;;2075396;28;2049;-87
2021/10/18 00:43:10;;;;;;;;;;;;;;;;;;2066298;28;1338;-87
2021/10/18 00:44:12;;;;;;;;;;;;;;;;;;2082923;28;1527;-87
2021/10/18 00:45:13;;;;;;;;;;;;;;;;;;2082709;28;1392;-87
2021/10/18 00:46:17;;;;;;;;;;;;;;;;;;2082443;28;1941;-87
2021/10/18 00:47:19;;;;;;;;;;;;;;;;;;2075051;28;1263;-87
2021/10/18 00:48:21;;;;;;;;;;;;;;;;;;2074905;28;1295;-87
2021/10/18 00:49:22;;;;;;;;;;;;;;;;;;2082189;28;1330;-87
2021/10/18 00:50:24;;;;;;;;;;;;;;;;;;2082308;28;1886;-89
2021/10/18 00:51:26;;;;;;;;;;;;;;;;;;2074591;28;1239;-89
2021/10/18 00:52:27;;;;;;;;;;;;;;;;;;2082741;28;1316;-86
2021/10/18 00:53:28;;;;;;;;;;;;;;;;;;2074446;28;1379;-87
2021/10/18 00:54:31;;;;;;;;;;;;;;;;;;2075278;28;1336;-88
2021/10/18 00:55:32;;;;;;;;;;;;;;;;;;2084551;28;1932;-87
2021/10/18 00:56:34;;;;;;;;;;;;;;;;;;2075219;28;1411;-87
2021/10/18 00:57:35;;;;;;;;;;;;;;;;;;2067576;28;1348;-88
2021/10/18 00:58:37;;;;;;;;;;;;;;;;;;2076108;28;1223;-87
2021/10/18 00:59:38;;;;;;;;;;;;;;;;;;2076076;28;1370;-87
2021/10/18 01:00:40;;;;;;;;;;;;;;;;;;2077525;28;1918;-87
2021/10/18 01:01:41;;;;;;;;;;;;;;;;;;2083900;28;1313;-87
2021/10/18 01:02:43;;;;;;;;;;;;;;;;;;2084143;28;1281;-87
2021/10/18 01:03:43;;;;;;;;;;;;;;;;;;2091854;28;1421;-87
2021/10/18 01:04:46;;;;;;;;;;;;;;;;;;2092202;28;1379;-87
2021/10/18 01:05:47;;;;;;;;;;;;;;;;;;2090976;28;1881;-87
2021/10/18 01:06:49;;;;;;;;;;;;;;;;;;2092544;28;1363;-87
2021/10/18 01:07:51;;;;;;;;;;;;;;;;;;2077160;28;2057;-87
2021/10/18 01:08:52;;;;;;;;;;;;;;;;;;2076046;28;1355;-87
2021/10/18 01:09:55;;;;;;;;;;;;;;;;;;2083905;28;1267;-86
2021/10/18 01:10:56;;;;;;;;;;;;;;;;;;2083469;28;1908;-86
2021/10/18 01:11:58;;;;;;;;;;;;;;;;;;2084193;28;1176;-86
2021/10/18 01:12:59;;;;;;;;;;;;;;;;;;2084036;28;1263;-87
2021/10/18 01:16:10;;;;;;;;;;;;;;;;;;2078147;28;1847;-89
2021/10/18 01:17:44;;;;;;;;;;;;;;;;;;2072899;28;1265;-89
2021/10/18 01:19:33;;;;;;;;;;;;;;;;;;2077217;28;1344;-88
2021/10/18 01:20:41;;;;;;;;;;;;;;;;;;2073735;28;1914;-88
2021/10/18 01:21:42;;;;;;;;;;;;;;;;;;2076512;28;1156;-88
2021/10/18 01:22:44;;;;;;;;;;;;;;;;;;2076043;28;1330;-88
2021/10/18 01:23:45;;;;;;;;;;;;;;;;;;2075914;28;1268;-88
2021/10/18 01:24:48;;;;;;;;;;;;;;;;;;2075549;28;1212;-88
2021/10/18 01:25:49;;;;;;;;;;;;;;;;;;2075688;28;1351;-88
2021/10/18 01:26:50;;;;;;;;;;;;;;;;;;2067494;28;1351;-88
2021/10/18 01:27:52;;;;;;;;;;;;;;;;;;2075697;28;1513;-88
2021/10/18 01:28:54;;;;;;;;;;;;;;;;;;2075927;28;1401;-88
2021/10/18 01:29:54;;;;;;;;;;;;;;;;;;2067572;28;1345;-87
2021/10/18 01:30:56;;;;;;;;;;;;;;;;;;2079825;28;1913;-87
2021/10/18 01:31:57;;;;;;;;;;;;;;;;;;2084226;28;1260;-87
2021/10/18 01:32:59;;;;;;;;;;;;;;;;;;2075714;28;1226;-87
2021/10/18 01:34:00;;;;;;;;;;;;;;;;;;2084054;28;1270;-88
2021/10/18 01:35:02;;;;;;;;;;;;;;;;;;2083499;28;1275;-88
2021/10/18 01:36:04;;;;;;;;;;;;;;;;;;2075695;28;1231;-87
2021/10/18 01:37:06;;;;;;;;;;;;;;;;;;2084010;28;1184;-87
2021/10/18 01:38:07;;;;;;;;;;;;;;;;;;2083564;28;1247;-87
2021/10/18 01:39:08;;;;;;;;;;;;;;;;;;2075833;28;1311;-87
2021/10/18 01:40:11;;;;;;;;;;;;;;;;;;2075821;28;1390;-87
2021/10/18 01:41:12;;;;;;;;;;;;;;;;;;2069830;28;1910;-87
2021/10/18 01:42:13;;;;;;;;;;;;;;;;;;2075818;28;1242;-87
2021/10/18 01:43:15;;;;;;;;;;;;;;;;;;2084045;28;1259;-87
2021/10/18 01:44:16;;;;;;;;;;;;;;;;;;2083922;28;1285;-87
2021/10/18 01:45:19;;;;;;;;;;;;;;;;;;2083248;28;1273;-87
2021/10/18 01:46:20;;;;;;;;;;;;;;;;;;2084253;28;1968;-87
2021/10/18 01:47:23;;;;;;;;;;;;;;;;;;2077668;28;2133;-87
2021/10/18 01:48:24;;;;;;;;;;;;;;;;;;2075640;28;1335;-87
2021/10/18 01:49:25;;;;;;;;;;;;;;;;;;2075736;28;1504;-87
2021/10/18 01:50:27;;;;;;;;;;;;;;;;;;2091683;28;1398;-88
2021/10/18 01:51:30;;;;;;;;;;;;;;;;;;2083620;28;1338;-87
2021/10/18 01:52:31;;;;;;;;;;;;;;;;;;2083298;28;1829;-88
2021/10/18 01:53:33;;;;;;;;;;;;;;;;;;2092131;28;1508;-87
2021/10/18 01:54:33;;;;;;;;;;;;;;;;;;2083791;28;1228;-88
2021/10/18 01:55:35;;;;;;;;;;;;;;;;;;2076758;28;2080;-88
2021/10/18 01:56:37;;;;;;;;;;;;;;;;;;2084013;28;1331;-88
2021/10/18 01:57:38;;;;;;;;;;;;;;;;;;2091755;28;2001;-88
2021/10/18 01:58:39;;;;;;;;;;;;;;;;;;2092266;28;1227;-88
2021/10/18 01:59:41;;;;;;;;;;;;;;;;;;2083272;28;1350;-88
2021/10/18 02:00:42;;;;;;;;;;;;;;;;;;2082865;28;1831;-87
2021/10/18 02:01:44;;;;;;;;;;;;;;;;;;2075517;28;1910;-88
2021/10/18 02:02:46;;;;;;;;;;;;;;;;;;2075635;28;1277;-87
2021/10/18 02:03:48;;;;;;;;;;;;;;;;;;2083874;28;1323;-88
2021/10/18 02:04:48;;;;;;;;;;;;;;;;;;2091948;28;1215;-87
2021/10/18 02:05:50;;;;;;;;;;;;;;;;;;2090673;28;1314;-88
2021/10/18 02:06:52;;;;;;;;;;;;;;;;;;2083162;28;1290;-88
2021/10/18 02:07:54;;;;;;;;;;;;;;;;;;2091941;28;1236;-88
2021/10/18 02:08:55;;;;;;;;;;;;;;;;;;2091712;28;1342;-87
2021/10/18 02:09:59;;;;;;;;;;;;;;;;;;2083677;28;1345;-87
2021/10/18 02:11:00;;;;;;;;;;;;;;;;;;2086167;28;2064;-88
2021/10/18 02:12:02;;;;;;;;;;;;;;;;;;2083961;28;1273;-87
2021/10/18 02:13:02;;;;;;;;;;;;;;;;;;2083241;28;1271;-88
2021/10/18 02:14:06;;;;;;;;;;;;;;;;;;2083726;28;1360;-88
2021/10/18 02:15:11;;;;;;;;;;;;;;;;;;2091959;28;1223;-87
2021/10/18 02:16:12;;;;;;;;;;;;;;;;;;2084551;28;1846;-87
2021/10/18 02:17:14;;;;;;;;;;;;;;;;;;2090899;28;2021;-88
2021/10/18 02:18:16;;;;;;;;;;;;;;;;;;2083896;28;1363;-87
2021/10/18 02:19:17;;;;;;;;;;;;;;;;;;2075361;28;1225;-87
2021/10/18 02:20:19;;;;;;;;;;;;;;;;;;2074742;28;1331;-87
2021/10/18 02:21:20;;;;;;;;;;;;;;;;;;2075362;28;1979;-87
2021/10/18 02:22:23;;;;;;;;;;;;;;;;;;2075832;28;1176;-87
2021/10/18 02:23:24;;;;;;;;;;;;;;;;;;2083326;28;1261;-87
2021/10/18 02:24:26;;;;;;;;;;;;;;;;;;2075241;28;1381;-88
2021/10/18 02:25:27;;;;;;;;;;;;;;;;;;2075552;28;1860;-88
2021/10/18 02:26:29;;;;;;;;;;;;;;;;;;2091943;28;1294;-88
2021/10/18 02:27:30;;;;;;;;;;;;;;;;;;2091214;28;1451;-88
2021/10/18 02:28:31;;;;;;;;;;;;;;;;;;2083860;28;1331;-87
2021/10/18 02:29:32;;;;;;;;;;;;;;;;;;2075344;28;1228;-87
2021/10/18 02:30:34;;;;;;;;;;;;;;;;;;2075229;28;1886;-88
2021/10/18 02:31:35;;;;;;;;;;;;;;;;;;2075366;28;1436;-87
2021/10/18 02:32:37;;;;;;;;;;;;;;;;;;2075159;28;1333;-87
2021/10/18 02:33:39;;;;;;;;;;;;;;;;;;2074992;28;1450;-87
2021/10/18 02:34:39;;;;;;;;;;;;;;;;;;2066893;28;1232;-87
2021/10/18 02:35:41;;;;;;;;;;;;;;;;;;2068756;28;1891;-87
2021/10/18 02:36:42;;;;;;;;;;;;;;;;;;2075321;28;1361;-87
2021/10/18 02:37:47;;;;;;;;;;;;;;;;;;2075018;28;1328;-87
2021/10/18 02:38:47;;;;;;;;;;;;;;;;;;2083668;28;1317;-87
2021/10/18 02:39:49;;;;;;;;;;;;;;;;;;2083363;28;1215;-87
2021/10/18 02:40:50;;;;;;;;;;;;;;;;;;2079377;28;2068;-87
2021/10/18 02:41:52;;;;;;;;;;;;;;;;;;2066571;28;1987;-86
2021/10/18 02:42:53;;;;;;;;;;;;;;;;;;2067386;28;831;-88
2021/10/18 02:43:55;;;;;;;;;;;;;;;;;;2075178;28;1295;-88
2021/10/18 02:44:56;;;;;;;;;;;;;;;;;;2067035;28;1364;-88
2021/10/18 02:45:58;;;;;;;;;;;;;;;;;;2067525;28;1851;-88
2021/10/18 02:46:59;;;;;;;;;;;;;;;;;;2075026;28;937;-88
2021/10/18 02:48:01;;;;;;;;;;;;;;;;;;2067050;28;1260;-87
2021/10/18 02:49:02;;;;;;;;;;;;;;;;;;2066927;28;1305;-88
2021/10/18 02:50:05;;;;;;;;;;;;;;;;;;2067342;28;1500;-88
2021/10/18 02:51:06;;;;;;;;;;;;;;;;;;2064355;28;1943;-87
2021/10/18 02:52:08;;;;;;;;;;;;;;;;;;2074914;28;2042;-88
2021/10/18 02:53:11;;;;;;;;;;;;;;;;;;2074955;28;1338;-87
2021/10/18 02:54:12;;;;;;;;;;;;;;;;;;2075371;28;1149;-87
2021/10/18 02:55:14;;;;;;;;;;;;;;;;;;2074801;28;1227;-87
2021/10/18 02:56:15;;;;;;;;;;;;;;;;;;2082534;28;2045;-88
2021/10/18 02:57:17;;;;;;;;;;;;;;;;;;2083232;28;1345;-87
2021/10/18 02:58:18;;;;;;;;;;;;;;;;;;2075218;28;1189;-88
2021/10/18 02:59:20;;;;;;;;;;;;;;;;;;2075052;28;1378;-87
2021/10/18 03:00:21;;;;;;;;;;;;;;;;;;2075141;28;1236;-87
2021/10/18 03:01:23;;;;;;;;;;;;;;;;;;2074800;28;1910;-87
2021/10/18 03:02:24;;;;;;;;;;;;;;;;;;2082453;28;1220;-88
2021/10/18 03:03:26;;;;;;;;;;;;;;;;;;2082962;28;1322;-87
2021/10/18 03:04:27;;;;;;;;;;;;;;;;;;2083444;28;1287;-88
2021/10/18 03:05:29;;;;;;;;;;;;;;;;;;2074334;28;1868;-87
2021/10/18 03:06:31;;;;;;;;;;;;;;;;;;2075615;28;1364;-89
2021/10/18 03:07:33;;;;;;;;;;;;;;;;;;2074815;28;2044;-88
2021/10/18 03:08:36;;;;;;;;;;;;;;;;;;2075213;28;1514;-89
2021/10/18 03:09:37;;;;;;;;;;;;;;;;;;2066381;28;1300;-88
2021/10/18 03:10:41;;;;;;;;;;;;;;;;;;2068726;28;1864;-87
2021/10/18 03:11:43;;;;;;;;;;;;;;;;;;2075185;28;1248;-87
2021/10/18 03:12:45;;;;;;;;;;;;;;;;;;2074835;28;1889;-88
2021/10/18 03:13:46;;;;;;;;;;;;;;;;;;2082880;28;1350;-88
2021/10/18 03:14:48;;;;;;;;;;;;;;;;;;2083326;28;1243;-88
2021/10/18 03:15:48;;;;;;;;;;;;;;;;;;2074663;28;1327;-89
2021/10/18 03:16:50;;;;;;;;;;;;;;;;;;2074630;28;1255;-87
2021/10/18 03:17:51;;;;;;;;;;;;;;;;;;2074786;28;1246;-87
2021/10/18 03:18:53;;;;;;;;;;;;;;;;;;2067055;28;1303;-86
2021/10/18 03:19:53;;;;;;;;;;;;;;;;;;2074952;28;1154;-88
2021/10/18 03:20:56;;;;;;;;;;;;;;;;;;2082164;28;1783;-88
2021/10/18 03:21:57;;;;;;;;;;;;;;;;;;2083200;28;1980;-88
2021/10/18 03:22:58;;;;;;;;;;;;;;;;;;2083186;28;1338;-88
2021/10/18 03:24:00;;;;;;;;;;;;;;;;;;2082731;28;1338;-89
2021/10/18 03:25:03;;;;;;;;;;;;;;;;;;2083264;28;1252;-88
2021/10/18 03:26:04;;;;;;;;;;;;;;;;;;2082584;28;1835;-89
2021/10/18 03:27:05;;;;;;;;;;;;;;;;;;2082291;28;2066;-89
2021/10/18 03:28:07;;;;;;;;;;;;;;;;;;2074811;28;1360;-89
2021/10/18 03:29:08;;;;;;;;;;;;;;;;;;2074875;28;1214;-89
2021/10/18 03:30:11;;;;;;;;;;;;;;;;;;2066808;28;1271;-89
2021/10/18 03:31:12;;;;;;;;;;;;;;;;;;2072714;28;1958;-88
2021/10/18 03:32:15;;;;;;;;;;;;;;;;;;2074866;28;1250;-88
2021/10/18 03:33:16;;;;;;;;;;;;;;;;;;2066685;28;1250;-87
2021/10/18 03:34:18;;;;;;;;;;;;;;;;;;2073527;28;1443;-86
2021/10/18 03:35:19;;;;;;;;;;;;;;;;;;2074884;28;1102;-88
2021/10/18 03:36:21;;;;;;;;;;;;;;;;;;2074902;28;1230;-88
2021/10/18 03:37:25;;;;;;;;;;;;;;;;;;2074751;28;2007;-88
2021/10/18 03:38:33;;;;;;;;;;;;;;;;;;2066645;28;1252;-89
2021/10/18 03:40:11;;;;;;;;;;;;;;;;;;2067135;28;1449;-88
2021/10/18 03:41:27;;;;;;;;;;;;;;;;;;2075211;28;1929;-90
2021/10/18 03:42:46;;;;;;;;;;;;;;;;;;2072757;28;2099;-90
2021/10/18 03:45:28;;;;;;;;;;;;;;;;;;2064391;28;1283;-89
2021/10/18 03:49:22;;;;;;;;;;;;;;;;;;2074883;28;1296;-88
2021/10/18 03:52:42;;;;;;;;;;;;;;;;;;2067128;28;702;-89
2021/10/18 04:05:25;;;;;;;;;;;;;;;;;;2080743;28;1314;-89
2021/10/18 04:09:17;;;;;;;;;;;;;;;;;;2067301;28;682;-89
2021/10/18 04:14:00;;;;;;;;;;;;;;;;;;2048761;29;1524;-89
2021/10/18 04:16:51;;;;;;;;;;;;;;;;;;2006350;29;1336;-89
2021/10/18 04:20:07;;;;;;;;;;;;;;;;;;2058975;28;1399;-89
2021/10/18 04:21:23;;;;;;;;;;;;;;;;;;2068930;28;1297;-89
2021/10/18 04:22:24;;;;;;;;;;;;;;;;;;2066017;28;1918;-86
2021/10/18 04:23:29;;;;;;;;;;;;;;;;;;2066469;28;1217;-88
2021/10/18 04:24:33;;;;;;;;;;;;;;;;;;2074967;28;1192;-87
2021/10/18 04:25:39;;;;;;;;;;;;;;;;;;2066684;28;1298;-86
2021/10/18 04:26:41;;;;;;;;;;;;;;;;;;2066865;28;1348;-84
2021/10/18 04:27:42;;;;;;;;;;;;;;;;;;2081417;28;1491;-84
2021/10/18 04:28:43;;;;;;;;;;;;;;;;;;2074173;28;1371;-83
2021/10/18 04:29:45;;;;;;;;;;;;;;;;;;2067201;28;1599;-82
2021/10/18 04:30:48;;;;;;;;;;;;;;;;;;2076161;28;1211;-83
2021/10/18 04:31:57;;;;;;;;;;;;;;;;;;2075880;28;1192;-81
2021/10/18 04:32:59;;;;;;;;;;;;;;;;;;2076825;28;1579;-85
2021/10/18 04:34:02;;;;;;;;;;;;;;;;;;2089171;28;1207;-83
2021/10/18 04:35:04;;;;;;;;;;;;;;;;;;2092552;28;1204;-85
2021/10/18 04:36:05;;;;;;;;;;;;;;;;;;2091199;28;1235;-84
2021/10/18 04:37:07;;;;;;;;;;;;;;;;;;2084117;28;1290;-85
2021/10/18 04:38:08;;;;;;;;;;;;;;;;;;2092308;28;1196;-85
2021/10/18 04:39:13;;;;;;;;;;;;;;;;;;2092287;28;1334;-85
2021/10/18 04:40:15;;;;;;;;;;;;;;;;;;2084056;28;1378;-84
2021/10/18 04:41:16;;;;;;;;;;;;;;;;;;2082177;28;1989;-83
2021/10/18 04:42:18;;;;;;;;;;;;;;;;;;2075306;28;1989;-84
2021/10/18 04:43:19;;;;;;;;;;;;;;;;;;2075079;28;1328;-82
2021/10/18 04:44:21;;;;;;;;;;;;;;;;;;2075212;28;1248;-82
2021/10/18 04:45:22;;;;;;;;;;;;;;;;;;2074814;28;1929;-81
2021/10/18 04:46:25;;;;;;;;;;;;;;;;;;2083744;28;1688;-81
2021/10/18 04:47:25;;;;;;;;;;;;;;;;;;2080252;28;1653;-81
2021/10/18 04:48:27;;;;;;;;;;;;;;;;;;2083333;28;1232;-81
2021/10/18 04:49:28;;;;;;;;;;;;;;;;;;2083628;28;1407;-81
2021/10/18 04:50:30;;;;;;;;;;;;;;;;;;2075198;28;1853;-82
2021/10/18 04:51:30;;;;;;;;;;;;;;;;;;2074401;28;1442;-82
2021/10/18 04:52:32;;;;;;;;;;;;;;;;;;2075046;28;1223;-82
2021/10/18 04:53:33;;;;;;;;;;;;;;;;;;2074858;28;1650;-82
2021/10/18 04:54:35;;;;;;;;;;;;;;;;;;2082979;28;1733;-81
2021/10/18 04:55:35;;;;;;;;;;;;;;;;;;2075853;28;1929;-81
2021/10/18 04:56:37;;;;;;;;;;;;;;;;;;2083576;28;1340;-82
2021/10/18 04:57:48;;;;;;;;;;;;;;;;;;2091789;28;1236;-81
2021/10/18 04:58:49;;;;;;;;;;;;;;;;;;2084254;28;1262;-82
2021/10/18 04:59:50;;;;;;;;;;;;;;;;;;2091774;28;1650;-81
2021/10/18 05:00:55;;;;;;;;;;;;;;;;;;2083737;28;1577;-82
2021/10/18 05:01:57;;;;;;;;;;;;;;;;;;2083387;28;1929;-82
2021/10/18 05:02:59;;;;;;;;;;;;;;;;;;2091427;28;2052;-82
2021/10/18 05:04:01;;;;;;;;;;;;;;;;;;2083896;28;1263;-82
2021/10/18 05:05:01;;;;;;;;;;;;;;;;;;2075598;28;1386;-81
2021/10/18 05:06:03;;;;;;;;;;;;;;;;;;2074891;28;1976;-82
2021/10/18 05:07:05;;;;;;;;;;;;;;;;;;2075286;28;1179;-82
2021/10/18 05:08:06;;;;;;;;;;;;;;;;;;2075596;28;1342;-82
2021/10/18 05:09:08;;;;;;;;;;;;;;;;;;2083286;28;1609;-81
2021/10/18 05:10:10;;;;;;;;;;;;;;;;;;2092103;28;1686;-81
2021/10/18 05:11:11;;;;;;;;;;;;;;;;;;2085651;28;1881;-81
2021/10/18 05:12:12;;;;;;;;;;;;;;;;;;2085332;28;1930;-81
2021/10/18 05:13:15;;;;;;;;;;;;;;;;;;2092089;28;1276;-82
2021/10/18 05:14:16;;;;;;;;;;;;;;;;;;2083871;28;1252;-81
2021/10/18 05:15:17;;;;;;;;;;;;;;;;;;2083517;28;1303;-82
2021/10/18 05:16:19;;;;;;;;;;;;;;;;;;2083365;28;1192;-81
2021/10/18 05:17:21;;;;;;;;;;;;;;;;;;2083660;28;1204;-82
2021/10/18 05:18:23;;;;;;;;;;;;;;;;;;2083860;28;1321;-81
2021/10/18 05:19:24;;;;;;;;;;;;;;;;;;2083985;28;1356;-81
2021/10/18 05:20:26;;;;;;;;;;;;;;;;;;2091372;28;1889;-82
2021/10/18 05:21:26;;;;;;;;;;;;;;;;;;2083209;28;1294;-81
2021/10/18 05:22:28;;;;;;;;;;;;;;;;;;2080330;28;2116;-82
2021/10/18 05:23:29;;;;;;;;;;;;;;;;;;2075193;28;1216;-81
2021/10/18 05:24:30;;;;;;;;;;;;;;;;;;2083814;28;1378;-81
2021/10/18 05:25:31;;;;;;;;;;;;;;;;;;2083597;28;1220;-82
2021/10/18 05:26:33;;;;;;;;;;;;;;;;;;2083939;28;1228;-81
2021/10/18 05:27:34;;;;;;;;;;;;;;;;;;2087717;28;2014;-81
2021/10/18 05:28:35;;;;;;;;;;;;;;;;;;2075646;28;1295;-82
2021/10/18 05:29:36;;;;;;;;;;;;;;;;;;2083211;28;1423;-81
2021/10/18 05:30:38;;;;;;;;;;;;;;;;;;2083521;28;1334;-81
2021/10/18 05:31:39;;;;;;;;;;;;;;;;;;2075352;28;1602;-82
2021/10/18 05:32:42;;;;;;;;;;;;;;;;;;2080213;28;2023;-81
2021/10/18 05:33:44;;;;;;;;;;;;;;;;;;2075204;28;1334;-82
2021/10/18 05:34:44;;;;;;;;;;;;;;;;;;2075720;28;1252;-81
2021/10/18 05:35:47;;;;;;;;;;;;;;;;;;2074603;28;1793;-82
2021/10/18 05:36:48;;;;;;;;;;;;;;;;;;2083219;28;1743;-82
2021/10/18 05:37:50;;;;;;;;;;;;;;;;;;2076102;28;1928;-81
2021/10/18 05:38:52;;;;;;;;;;;;;;;;;;2075421;28;1307;-81
2021/10/18 05:39:52;;;;;;;;;;;;;;;;;;2083469;28;1338;-81
2021/10/18 05:40:54;;;;;;;;;;;;;;;;;;2075417;28;1315;-81
2021/10/18 05:41:55;;;;;;;;;;;;;;;;;;2075247;28;1369;-82
2021/10/18 05:42:57;;;;;;;;;;;;;;;;;;2075026;28;2109;-81
2021/10/18 05:43:59;;;;;;;;;;;;;;;;;;2075262;28;1209;-81
2021/10/18 05:45:00;;;;;;;;;;;;;;;;;;2075106;28;816;-82
2021/10/18 05:46:02;;;;;;;;;;;;;;;;;;2082985;28;1906;-81
2021/10/18 05:47:03;;;;;;;;;;;;;;;;;;2082952;28;1967;-83
2021/10/18 05:48:06;;;;;;;;;;;;;;;;;;2074972;28;1217;-82
2021/10/18 05:49:07;;;;;;;;;;;;;;;;;;2075377;28;1262;-82
2021/10/18 05:50:09;;;;;;;;;;;;;;;;;;2075486;28;1290;-81
2021/10/18 05:51:11;;;;;;;;;;;;;;;;;;2082245;28;1830;-82
2021/10/18 05:52:11;;;;;;;;;;;;;;;;;;2083049;28;1820;-82
2021/10/18 05:53:14;;;;;;;;;;;;;;;;;;2083273;28;1650;-82
2021/10/18 05:54:14;;;;;;;;;;;;;;;;;;2083400;28;1227;-81
2021/10/18 05:55:16;;;;;;;;;;;;;;;;;;2075370;28;1443;-82
2021/10/18 05:56:18;;;;;;;;;;;;;;;;;;2066597;28;1932;-81
2021/10/18 05:57:18;;;;;;;;;;;;;;;;;;2074970;28;1842;-82
2021/10/18 05:58:20;;;;;;;;;;;;;;;;;;2074780;28;1734;-81
2021/10/18 05:59:21;;;;;;;;;;;;;;;;;;2075189;28;1329;-82
2021/10/18 06:00:23;;;;;;;;;;;;;;;;;;2083107;28;1942;-83
2021/10/18 06:01:24;;;;;;;;;;;;;;;;;;2083112;28;887;-82
2021/10/18 06:02:25;;;;;;;;;;;;;;;;;;2083109;28;2081;-81
2021/10/18 06:03:29;;;;;;;;;;;;;;;;;;2083197;28;1351;-82
2021/10/18 06:04:29;;;;;;;;;;;;;;;;;;2083217;28;1390;-82
2021/10/18 06:05:31;;;;;;;;;;;;;;;;;;2083226;28;1688;-82
2021/10/18 06:06:33;;;;;;;;;;;;;;;;;;2074913;28;1261;-81
2021/10/18 06:07:35;;;;;;;;;;;;;;;;;;2075005;28;2066;-82
2021/10/18 06:08:36;;;;;;;;;;;;;;;;;;2075220;28;1322;-81
2021/10/18 06:09:38;;;;;;;;;;;;;;;;;;2075170;28;1554;-81
2021/10/18 06:10:39;;;;;;;;;;;;;;;;;;2082798;28;2084;-81
2021/10/18 06:11:40;;;;;;;;;;;;;;;;;;2082991;28;1529;-82
2021/10/18 06:12:41;;;;;;;;;;;;;;;;;;2082611;28;2006;-82
2021/10/18 06:13:43;;;;;;;;;;;;;;;;;;2083272;28;1248;-81
2021/10/18 06:14:44;;;;;;;;;;;;;;;;;;2083164;28;1256;-82
2021/10/18 06:15:45;;;;;;;;;;;;;;;;;;2074454;28;1836;-82
2021/10/18 06:16:46;;;;;;;;;;;;;;;;;;2075266;28;1755;-82
2021/10/18 06:17:48;;;;;;;;;;;;;;;;;;2074579;28;2098;-81
2021/10/18 06:18:50;;;;;;;;;;;;;;;;;;2075052;28;1673;-90
2021/10/18 06:19:52;;;;;;;;;;;;;;;;;;2083319;28;1698;-85
2021/10/18 06:20:55;;;;;;;;;;;;;;;;;;2074720;28;1902;-85
2021/10/18 06:21:55;;;;;;;;;;;;;;;;;;2074862;28;1258;-85
2021/10/18 06:22:57;;;;;;;;;;;;;;;;;;2066993;28;2066;-85
2021/10/18 06:23:58;;;;;;;;;;;;;;;;;;2075373;28;1211;-84
2021/10/18 06:25:00;;;;;;;;;;;;;;;;;;2075311;28;1433;-85
2021/10/18 06:26:02;;;;;;;;;;;;;;;;;;2067232;28;1355;-84
2021/10/18 06:27:02;;;;;;;;;;;;;;;;;;2066782;28;2170;-85
2021/10/18 06:28:04;;;;;;;;;;;;;;;;;;2075353;28;1322;-85
2021/10/18 06:29:05;;;;;;;;;;;;;;;;;;2074982;28;1192;-83
2021/10/18 06:30:08;;;;;;;;;;;;;;;;;;2075429;28;1377;-87
2021/10/18 06:31:09;;;;;;;;;;;;;;;;;;2075306;28;1366;-91
2021/10/18 06:32:11;;;;;;;;;;;;;;;;;;2069008;28;1871;-95
2021/10/18 06:33:13;;;;;;;;;;;;;;;;;;2083874;28;1243;-96
2021/10/18 06:34:18;;;;;;;;;;;;;;;;;;2091498;28;1346;-96
2021/10/18 06:35:22;;;;;;;;;;;;;;;;;;2083198;28;895;-89
2021/10/18 06:36:24;;;;;;;;;;;;;;;;;;2075075;28;1303;-86
2021/10/18 06:37:25;;;;;;;;;;;;;;;;;;2078233;28;1228;-87
2021/10/18 06:38:27;;;;;;;;;;;;;;;;;;2091868;28;1198;-85
2021/10/18 06:39:29;;;;;;;;;;;;;;;;;;2074964;28;1409;-86
2021/10/18 06:40:30;;;;;;;;;;;;;;;;;;2075152;28;1315;-87
2021/10/18 06:41:32;;;;;;;;;;;;;;;;;;2091721;28;1246;-87
2021/10/18 06:42:33;;;;;;;;;;;;;;;;;;2087154;28;2049;-86
2021/10/18 06:43:35;;;;;;;;;;;;;;;;;;2066621;28;2037;-88
2021/10/18 06:44:35;;;;;;;;;;;;;;;;;;2083458;28;1376;-86
2021/10/18 06:45:37;;;;;;;;;;;;;;;;;;2091246;28;1822;-86
2021/10/18 06:46:39;;;;;;;;;;;;;;;;;;2083239;28;1320;-86
2021/10/18 06:47:41;;;;;;;;;;;;;;;;;;2087888;28;2045;-87
2021/10/18 06:48:43;;;;;;;;;;;;;;;;;;2083710;28;1345;-85
2021/10/18 06:49:46;;;;;;;;;;;;;;;;;;2083429;28;1214;-87
2021/10/18 06:50:49;;;;;;;;;;;;;;;;;;2079762;28;1848;-87
2021/10/18 06:51:53;;;;;;;;;;;;;;;;;;2090997;28;1221;-87
2021/10/18 06:52:55;;;;;;;;;;;;;;;;;;2075772;28;2088;-86
2021/10/18 06:53:56;;;;;;;;;;;;;;;;;;2066786;28;1339;-87
2021/10/18 06:54:58;;;;;;;;;;;;;;;;;;2074798;28;1238;-87
2021/10/18 06:56:02;;;;;;;;;;;;;;;;;;2083750;28;1459;-86
2021/10/18 06:57:04;;;;;;;;;;;;;;;;;;2075173;28;1963;-87
2021/10/18 06:58:06;;;;;;;;;;;;;;;;;;2083065;28;1351;-87
2021/10/18 06:59:07;;;;;;;;;;;;;;;;;;2091450;28;1204;-85
2021/10/18 07:00:10;;;;;;;;;;;;;;;;;;2083547;28;1190;-85
2021/10/18 07:01:10;;;;;;;;;;;;;;;;;;2082255;28;1897;-87
2021/10/18 07:02:12;;;;;;;;;;;;;;;;;;2090598;28;2048;-87
2021/10/18 07:03:13;;;;;;;;;;;;;;;;;;2091060;28;1973;-87
2021/10/18 07:04:18;;;;;;;;;;;;;;;;;;2083439;28;1456;-87
2021/10/18 07:05:21;;;;;;;;;;;;;;;;;;2083142;28;1232;-88
2021/10/18 07:06:23;;;;;;;;;;;;;;;;;;2083188;28;1212;-87
2021/10/18 07:07:27;;;;;;;;;;;;;;;;;;2082357;28;2070;-86
2021/10/18 07:08:28;;;;;;;;;;;;;;;;;;2083559;28;1343;-85
2021/10/18 07:09:29;;;;;;;;;;;;;;;;;;2091071;28;1391;-86
2021/10/18 07:10:31;;;;;;;;;;;;;;;;;;2082811;28;1858;-86
2021/10/18 07:11:33;;;;;;;;;;;;;;;;;;2083307;28;1464;-85
2021/10/18 07:12:36;;;;;;;;;;;;;;;;;;2083144;28;1994;-89
2021/10/18 07:13:36;;;;;;;;;;;;;;;;;;2083319;28;1343;-86
2021/10/18 07:14:38;;;;;;;;;;;;;;;;;;2091435;28;1173;-86
2021/10/18 07:15:40;;;;;;;;;;;;;;;;;;2081905;28;1886;-86
2021/10/18 07:16:41;;;;;;;;;;;;;;;;;;2083177;28;1220;-86
2021/10/18 07:17:43;;;;;;;;;;;;;;;;;;2088181;28;2045;-86
2021/10/18 07:18:43;;;;;;;;;;;;;;;;;;2083271;28;1263;-85
2021/10/18 07:19:45;;;;;;;;;;;;;;;;;;2077703;28;3074;-86
2021/10/18 07:20:48;;;;;;;;;;;;;;;;;;2074787;28;1867;-86
2021/10/18 07:21:49;;;;;;;;;;;;;;;;;;2074072;28;1303;-86
2021/10/18 07:22:55;;;;;;;;;;;;;;;;;;2079934;28;1713;-86
2021/10/18 07:24:02;;;;;;;;;;;;;;;;;;2077520;28;1593;-85
2021/10/18 07:25:04;;;;;;;;;;;;;;;;;;2091106;28;1425;-87
2021/10/18 07:26:07;;;;;;;;;;;;;;;;;;2091571;28;1877;-85
2021/10/18 07:27:09;;;;;;;;;;;;;;;;;;2081868;28;1679;-85
2021/10/18 07:28:11;;;;;;;;;;;;;;;;;;2082950;28;1369;-86
2021/10/18 07:29:12;;;;;;;;;;;;;;;;;;2082659;28;1326;-86
2021/10/18 07:30:14;;;;;;;;;;;;;;;;;;2074676;28;1394;-85
2021/10/18 07:31:17;;;;;;;;;;;;;;;;;;2084163;28;2015;-86
2021/10/18 07:32:18;;;;;;;;;;;;;;;;;;2077207;28;1858;-86
2021/10/18 07:33:20;;;;;;;;;;;;;;;;;;2082869;28;1362;-86
2021/10/18 07:34:22;;;;;;;;;;;;;;;;;;2082836;28;1233;-87
2021/10/18 07:35:29;;;;;;;;;;;;;;;;;;2082802;28;1876;-88
2021/10/18 07:36:34;;;;;;;;;;;;;;;;;;2074858;28;1178;-87
2021/10/18 07:37:36;;;;;;;;;;;;;;;;;;2075877;28;1431;-87
2021/10/18 07:38:37;;;;;;;;;;;;;;;;;;2089020;28;1478;-86
2021/10/18 07:39:39;;;;;;;;;;;;;;;;;;2077923;28;1501;-87
2021/10/18 07:40:41;;;;;;;;;;;;;;;;;;2081220;28;1888;-87
2021/10/18 07:41:42;;;;;;;;;;;;;;;;;;2082664;28;1475;-87
2021/10/18 07:42:44;;;;;;;;;;;;;;;;;;2082796;28;1358;-87
2021/10/18 07:43:45;;;;;;;;;;;;;;;;;;2090802;28;1898;-87